sensor_id;sensor_type;location;lat;lon;timestamp;P1;durP1;ratioP1;P2;durP2;ratioP2
16436;SDS011;8328;52.206;21.006;2023-07-13T00:01:27;9.33;;;7.57;;
16436;SDS011;8328;52.206;21.006;2023-07-13T00:03:54;12.97;;;8.03;;
16436;SDS011;8328;52.206;21.006;2023-07-13T00:06:21;12.27;;;8.50;;
16436;SDS011;8328;52.206;21.006;2023-07-13T00:08:47;8.10;;;7.30;;
16436;SDS011;8328;52.206;21.006;2023-07-13T00:11:14;9.47;;;8.20;;
16436;SDS011;8328;52.206;21.006;2023-07-13T00:13:40;8.73;;;7.60;;
16436;SDS011;8328;52.206;21.006;2023-07-13T00:16:07;9.33;;;8.30;;
16436;SDS011;8328;52.206;21.006;2023-07-13T00:18:34;8.73;;;7.57;;
16436;SDS011;8328;52.206;21.006;2023-07-13T00:21:00;9.80;;;8.63;;
16436;SDS011;8328;52.206;21.006;2023-07-13T00:23:39;10.77;;;8.17;;
16436;SDS011;8328;52.206;21.006;2023-07-13T00:26:06;9.40;;;8.30;;
16436;SDS011;8328;52.206;21.006;2023-07-13T00:28:34;9.60;;;7.77;;
16436;SDS011;8328;52.206;21.006;2023-07-13T00:31:00;9.57;;;7.50;;
16436;SDS011;8328;52.206;21.006;2023-07-13T00:33:27;9.13;;;8.13;;
16436;SDS011;8328;52.206;21.006;2023-07-13T00:35:54;10.07;;;8.00;;
16436;SDS011;8328;52.206;21.006;2023-07-13T00:38:21;12.23;;;8.57;;
16436;SDS011;8328;52.206;21.006;2023-07-13T00:40:48;10.80;;;8.20;;
16436;SDS011;8328;52.206;21.006;2023-07-13T00:43:15;13.30;;;9.03;;
16436;SDS011;8328;52.206;21.006;2023-07-13T00:48:13;10.57;;;8.37;;
16436;SDS011;8328;52.206;21.006;2023-07-13T00:50:43;10.30;;;8.33;;
16436;SDS011;8328;52.206;21.006;2023-07-13T00:53:11;9.60;;;8.33;;
16436;SDS011;8328;52.206;21.006;2023-07-13T00:55:38;10.93;;;8.53;;
16436;SDS011;8328;52.206;21.006;2023-07-13T00:58:05;11.03;;;8.67;;
16436;SDS011;8328;52.206;21.006;2023-07-13T01:00:31;9.93;;;8.93;;
16436;SDS011;8328;52.206;21.006;2023-07-13T01:03:01;10.47;;;9.23;;
16436;SDS011;8328;52.206;21.006;2023-07-13T01:05:29;13.77;;;9.10;;
16436;SDS011;8328;52.206;21.006;2023-07-13T01:07:57;9.30;;;8.20;;
16436;SDS011;8328;52.206;21.006;2023-07-13T01:10:25;12.73;;;11.30;;
16436;SDS011;8328;52.206;21.006;2023-07-13T01:12:51;13.10;;;9.87;;
16436;SDS011;8328;52.206;21.006;2023-07-13T01:18:12;9.83;;;8.50;;
16436;SDS011;8328;52.206;21.006;2023-07-13T01:23:38;9.57;;;8.60;;
16436;SDS011;8328;52.206;21.006;2023-07-13T01:26:05;10.50;;;8.20;;
16436;SDS011;8328;52.206;21.006;2023-07-13T01:28:34;10.57;;;8.53;;
16436;SDS011;8328;52.206;21.006;2023-07-13T01:31:02;11.27;;;8.97;;
16436;SDS011;8328;52.206;21.006;2023-07-13T01:33:28;11.40;;;8.20;;
16436;SDS011;8328;52.206;21.006;2023-07-13T01:35:54;11.70;;;8.57;;
16436;SDS011;8328;52.206;21.006;2023-07-13T01:38:22;12.33;;;8.30;;
16436;SDS011;8328;52.206;21.006;2023-07-13T01:40:50;10.53;;;8.70;;
16436;SDS011;8328;52.206;21.006;2023-07-13T01:43:16;10.20;;;8.53;;
16436;SDS011;8328;52.206;21.006;2023-07-13T01:45:43;10.37;;;8.23;;
16436;SDS011;8328;52.206;21.006;2023-07-13T01:48:10;10.00;;;8.83;;
16436;SDS011;8328;52.206;21.006;2023-07-13T01:50:36;10.93;;;8.80;;
16436;SDS011;8328;52.206;21.006;2023-07-13T01:53:02;11.67;;;8.87;;
16436;SDS011;8328;52.206;21.006;2023-07-13T01:55:28;10.63;;;9.17;;
16436;SDS011;8328;52.206;21.006;2023-07-13T01:57:54;10.37;;;9.13;;
16436;SDS011;8328;52.206;21.006;2023-07-13T02:00:20;12.77;;;8.93;;
16436;SDS011;8328;52.206;21.006;2023-07-13T02:02:46;11.83;;;8.70;;
16436;SDS011;8328;52.206;21.006;2023-07-13T02:05:12;11.67;;;9.53;;
16436;SDS011;8328;52.206;21.006;2023-07-13T02:07:38;11.10;;;9.07;;
16436;SDS011;8328;52.206;21.006;2023-07-13T02:10:05;12.20;;;9.17;;
16436;SDS011;8328;52.206;21.006;2023-07-13T02:12:32;13.47;;;9.40;;
16436;SDS011;8328;52.206;21.006;2023-07-13T02:14:58;11.97;;;9.70;;
16436;SDS011;8328;52.206;21.006;2023-07-13T02:17:26;10.10;;;9.03;;
16436;SDS011;8328;52.206;21.006;2023-07-13T02:19:52;12.47;;;9.37;;
16436;SDS011;8328;52.206;21.006;2023-07-13T02:22:18;11.10;;;9.53;;
16436;SDS011;8328;52.206;21.006;2023-07-13T02:30:25;11.57;;;9.90;;
16436;SDS011;8328;52.206;21.006;2023-07-13T02:32:52;13.70;;;10.33;;
16436;SDS011;8328;52.206;21.006;2023-07-13T02:37:43;11.77;;;10.03;;
16436;SDS011;8328;52.206;21.006;2023-07-13T02:40:09;12.00;;;10.23;;
16436;SDS011;8328;52.206;21.006;2023-07-13T02:42:35;12.17;;;9.23;;
16436;SDS011;8328;52.206;21.006;2023-07-13T02:45:00;12.27;;;10.17;;
16436;SDS011;8328;52.206;21.006;2023-07-13T02:47:29;14.70;;;10.47;;
16436;SDS011;8328;52.206;21.006;2023-07-13T02:49:54;15.03;;;10.70;;
16436;SDS011;8328;52.206;21.006;2023-07-13T02:55:40;11.17;;;9.93;;
16436;SDS011;8328;52.206;21.006;2023-07-13T02:58:33;11.10;;;9.90;;
16436;SDS011;8328;52.206;21.006;2023-07-13T03:01:05;12.50;;;10.40;;
16436;SDS011;8328;52.206;21.006;2023-07-13T03:03:32;13.20;;;10.63;;
16436;SDS011;8328;52.206;21.006;2023-07-13T03:05:59;13.07;;;10.90;;
16436;SDS011;8328;52.206;21.006;2023-07-13T03:08:27;12.50;;;9.67;;
16436;SDS011;8328;52.206;21.006;2023-07-13T03:11:03;13.33;;;10.93;;
16436;SDS011;8328;52.206;21.006;2023-07-13T03:16:41;14.27;;;10.17;;
16436;SDS011;8328;52.206;21.006;2023-07-13T03:19:08;16.23;;;11.23;;
16436;SDS011;8328;52.206;21.006;2023-07-13T03:24:21;12.37;;;10.53;;
16436;SDS011;8328;52.206;21.006;2023-07-13T03:26:54;12.70;;;11.13;;
16436;SDS011;8328;52.206;21.006;2023-07-13T03:29:20;14.13;;;10.97;;
16436;SDS011;8328;52.206;21.006;2023-07-13T03:31:46;13.03;;;11.17;;
16436;SDS011;8328;52.206;21.006;2023-07-13T03:34:12;12.80;;;11.00;;
16436;SDS011;8328;52.206;21.006;2023-07-13T03:36:38;14.33;;;11.20;;
16436;SDS011;8328;52.206;21.006;2023-07-13T03:39:04;13.10;;;11.07;;
16436;SDS011;8328;52.206;21.006;2023-07-13T03:41:33;14.87;;;11.43;;
16436;SDS011;8328;52.206;21.006;2023-07-13T03:43:59;15.20;;;11.50;;
16436;SDS011;8328;52.206;21.006;2023-07-13T03:46:25;14.83;;;11.03;;
16436;SDS011;8328;52.206;21.006;2023-07-13T03:48:51;14.40;;;11.13;;
16436;SDS011;8328;52.206;21.006;2023-07-13T03:51:18;15.53;;;11.80;;
16436;SDS011;8328;52.206;21.006;2023-07-13T03:53:44;15.00;;;11.50;;
16436;SDS011;8328;52.206;21.006;2023-07-13T03:56:11;13.47;;;10.60;;
16436;SDS011;8328;52.206;21.006;2023-07-13T04:01:40;11.90;;;10.60;;
16436;SDS011;8328;52.206;21.006;2023-07-13T04:04:06;22.90;;;10.93;;
16436;SDS011;8328;52.206;21.006;2023-07-13T04:06:32;15.57;;;11.67;;
16436;SDS011;8328;52.206;21.006;2023-07-13T04:08:59;13.00;;;11.20;;
16436;SDS011;8328;52.206;21.006;2023-07-13T04:11:27;27.50;;;13.30;;
16436;SDS011;8328;52.206;21.006;2023-07-13T04:13:54;11.67;;;10.27;;
16436;SDS011;8328;52.206;21.006;2023-07-13T04:16:20;15.27;;;10.87;;
16436;SDS011;8328;52.206;21.006;2023-07-13T04:18:48;14.37;;;11.20;;
16436;SDS011;8328;52.206;21.006;2023-07-13T04:21:15;14.77;;;11.17;;
16436;SDS011;8328;52.206;21.006;2023-07-13T04:23:41;14.13;;;11.00;;
16436;SDS011;8328;52.206;21.006;2023-07-13T04:26:10;13.27;;;10.70;;
16436;SDS011;8328;52.206;21.006;2023-07-13T04:31:17;15.10;;;11.10;;
16436;SDS011;8328;52.206;21.006;2023-07-13T04:33:43;16.20;;;11.23;;
16436;SDS011;8328;52.206;21.006;2023-07-13T04:36:10;15.30;;;10.77;;
16436;SDS011;8328;52.206;21.006;2023-07-13T04:38:36;14.50;;;10.60;;
16436;SDS011;8328;52.206;21.006;2023-07-13T04:41:03;13.87;;;11.97;;
16436;SDS011;8328;52.206;21.006;2023-07-13T04:43:34;14.40;;;11.47;;
16436;SDS011;8328;52.206;21.006;2023-07-13T04:46:05;18.40;;;11.50;;
16436;SDS011;8328;52.206;21.006;2023-07-13T04:48:32;13.93;;;11.10;;
16436;SDS011;8328;52.206;21.006;2023-07-13T04:50:59;14.10;;;11.57;;
16436;SDS011;8328;52.206;21.006;2023-07-13T04:53:26;12.77;;;11.43;;
16436;SDS011;8328;52.206;21.006;2023-07-13T04:55:52;14.43;;;10.87;;
16436;SDS011;8328;52.206;21.006;2023-07-13T04:58:18;15.27;;;11.33;;
16436;SDS011;8328;52.206;21.006;2023-07-13T05:00:44;14.60;;;10.33;;
16436;SDS011;8328;52.206;21.006;2023-07-13T05:03:13;15.50;;;10.70;;
16436;SDS011;8328;52.206;21.006;2023-07-13T05:06:04;11.57;;;9.77;;
16436;SDS011;8328;52.206;21.006;2023-07-13T05:08:31;12.77;;;9.97;;
16436;SDS011;8328;52.206;21.006;2023-07-13T05:10:59;16.17;;;11.17;;
16436;SDS011;8328;52.206;21.006;2023-07-13T05:13:26;13.10;;;10.63;;
16436;SDS011;8328;52.206;21.006;2023-07-13T05:15:55;13.37;;;11.03;;
16436;SDS011;8328;52.206;21.006;2023-07-13T05:24:06;12.17;;;10.97;;
16436;SDS011;8328;52.206;21.006;2023-07-13T05:26:33;16.33;;;10.27;;
16436;SDS011;8328;52.206;21.006;2023-07-13T05:28:59;15.73;;;11.20;;
16436;SDS011;8328;52.206;21.006;2023-07-13T05:31:25;13.07;;;11.50;;
16436;SDS011;8328;52.206;21.006;2023-07-13T05:33:51;13.20;;;11.10;;
16436;SDS011;8328;52.206;21.006;2023-07-13T05:36:17;12.77;;;10.83;;
16436;SDS011;8328;52.206;21.006;2023-07-13T05:38:45;15.83;;;11.90;;
16436;SDS011;8328;52.206;21.006;2023-07-13T05:41:15;15.37;;;10.87;;
16436;SDS011;8328;52.206;21.006;2023-07-13T05:43:48;13.47;;;11.23;;
16436;SDS011;8328;52.206;21.006;2023-07-13T05:46:19;14.77;;;11.70;;
16436;SDS011;8328;52.206;21.006;2023-07-13T05:48:51;14.50;;;12.00;;
16436;SDS011;8328;52.206;21.006;2023-07-13T05:51:17;13.60;;;11.03;;
16436;SDS011;8328;52.206;21.006;2023-07-13T05:53:43;13.43;;;10.30;;
16436;SDS011;8328;52.206;21.006;2023-07-13T05:56:12;14.77;;;10.47;;
16436;SDS011;8328;52.206;21.006;2023-07-13T05:58:38;11.20;;;9.60;;
16436;SDS011;8328;52.206;21.006;2023-07-13T06:01:06;11.10;;;9.50;;
16436;SDS011;8328;52.206;21.006;2023-07-13T06:03:35;11.20;;;9.17;;
16436;SDS011;8328;52.206;21.006;2023-07-13T06:06:03;11.53;;;8.80;;
16436;SDS011;8328;52.206;21.006;2023-07-13T06:08:31;13.33;;;8.50;;
16436;SDS011;8328;52.206;21.006;2023-07-13T06:11:04;14.10;;;9.50;;
16436;SDS011;8328;52.206;21.006;2023-07-13T06:13:52;11.97;;;8.93;;
16436;SDS011;8328;52.206;21.006;2023-07-13T06:16:18;12.17;;;9.53;;
16436;SDS011;8328;52.206;21.006;2023-07-13T06:18:44;10.07;;;8.13;;
16436;SDS011;8328;52.206;21.006;2023-07-13T06:21:11;12.30;;;9.47;;
16436;SDS011;8328;52.206;21.006;2023-07-13T06:23:39;11.27;;;8.50;;
16436;SDS011;8328;52.206;21.006;2023-07-13T06:26:05;14.10;;;8.90;;
16436;SDS011;8328;52.206;21.006;2023-07-13T06:28:32;11.70;;;8.07;;
16436;SDS011;8328;52.206;21.006;2023-07-13T06:30:59;9.27;;;7.67;;
16436;SDS011;8328;52.206;21.006;2023-07-13T06:33:25;11.43;;;8.90;;
16436;SDS011;8328;52.206;21.006;2023-07-13T06:35:51;8.60;;;7.67;;
16436;SDS011;8328;52.206;21.006;2023-07-13T06:38:19;8.33;;;6.60;;
16436;SDS011;8328;52.206;21.006;2023-07-13T06:40:45;7.83;;;6.40;;
16436;SDS011;8328;52.206;21.006;2023-07-13T06:43:12;8.03;;;5.07;;
16436;SDS011;8328;52.206;21.006;2023-07-13T06:45:42;9.90;;;6.17;;
16436;SDS011;8328;52.206;21.006;2023-07-13T06:48:15;5.10;;;4.50;;
16436;SDS011;8328;52.206;21.006;2023-07-13T06:50:42;6.93;;;4.77;;
16436;SDS011;8328;52.206;21.006;2023-07-13T06:53:08;9.70;;;5.00;;
16436;SDS011;8328;52.206;21.006;2023-07-13T06:55:37;7.93;;;5.40;;
16436;SDS011;8328;52.206;21.006;2023-07-13T06:58:04;5.37;;;4.17;;
16436;SDS011;8328;52.206;21.006;2023-07-13T07:00:30;7.17;;;4.50;;
16436;SDS011;8328;52.206;21.006;2023-07-13T07:02:56;7.23;;;5.03;;
16436;SDS011;8328;52.206;21.006;2023-07-13T07:05:22;7.87;;;5.20;;
16436;SDS011;8328;52.206;21.006;2023-07-13T07:07:50;9.43;;;6.10;;
16436;SDS011;8328;52.206;21.006;2023-07-13T07:10:18;8.57;;;5.60;;
16436;SDS011;8328;52.206;21.006;2023-07-13T07:12:44;8.27;;;5.10;;
16436;SDS011;8328;52.206;21.006;2023-07-13T07:15:10;6.53;;;4.93;;
16436;SDS011;8328;52.206;21.006;2023-07-13T07:17:36;7.20;;;4.47;;
16436;SDS011;8328;52.206;21.006;2023-07-13T07:20:03;4.67;;;3.60;;
16436;SDS011;8328;52.206;21.006;2023-07-13T07:22:32;3.83;;;3.30;;
16436;SDS011;8328;52.206;21.006;2023-07-13T07:24:58;6.30;;;3.23;;
16436;SDS011;8328;52.206;21.006;2023-07-13T07:27:25;4.27;;;3.43;;
16436;SDS011;8328;52.206;21.006;2023-07-13T07:29:51;4.50;;;3.90;;
16436;SDS011;8328;52.206;21.006;2023-07-13T07:32:17;5.87;;;4.47;;
16436;SDS011;8328;52.206;21.006;2023-07-13T07:34:44;4.63;;;3.87;;
16436;SDS011;8328;52.206;21.006;2023-07-13T07:37:11;5.30;;;3.73;;
16436;SDS011;8328;52.206;21.006;2023-07-13T07:39:39;4.73;;;4.10;;
16436;SDS011;8328;52.206;21.006;2023-07-13T07:42:05;5.67;;;4.10;;
16436;SDS011;8328;52.206;21.006;2023-07-13T07:44:32;4.57;;;3.80;;
16436;SDS011;8328;52.206;21.006;2023-07-13T07:46:59;6.30;;;4.00;;
16436;SDS011;8328;52.206;21.006;2023-07-13T07:49:25;4.50;;;3.60;;
16436;SDS011;8328;52.206;21.006;2023-07-13T07:51:51;6.40;;;4.10;;
16436;SDS011;8328;52.206;21.006;2023-07-13T07:54:17;4.87;;;3.43;;
16436;SDS011;8328;52.206;21.006;2023-07-13T07:56:43;3.67;;;2.77;;
16436;SDS011;8328;52.206;21.006;2023-07-13T07:59:09;7.40;;;3.30;;
16436;SDS011;8328;52.206;21.006;2023-07-13T08:01:36;7.67;;;3.50;;
16436;SDS011;8328;52.206;21.006;2023-07-13T08:04:02;4.13;;;2.97;;
16436;SDS011;8328;52.206;21.006;2023-07-13T08:06:28;7.00;;;3.07;;
16436;SDS011;8328;52.206;21.006;2023-07-13T08:08:54;4.03;;;2.97;;
16436;SDS011;8328;52.206;21.006;2023-07-13T08:11:20;4.50;;;3.43;;
16436;SDS011;8328;52.206;21.006;2023-07-13T08:13:46;5.03;;;3.80;;
16436;SDS011;8328;52.206;21.006;2023-07-13T08:16:15;4.27;;;3.70;;
16436;SDS011;8328;52.206;21.006;2023-07-13T08:18:40;4.10;;;3.50;;
16436;SDS011;8328;52.206;21.006;2023-07-13T08:21:09;4.50;;;3.60;;
16436;SDS011;8328;52.206;21.006;2023-07-13T08:23:35;8.23;;;3.70;;
16436;SDS011;8328;52.206;21.006;2023-07-13T08:26:01;4.20;;;3.77;;
16436;SDS011;8328;52.206;21.006;2023-07-13T08:28:31;5.93;;;4.10;;
16436;SDS011;8328;52.206;21.006;2023-07-13T08:31:05;5.07;;;4.57;;
16436;SDS011;8328;52.206;21.006;2023-07-13T08:33:33;5.13;;;4.60;;
16436;SDS011;8328;52.206;21.006;2023-07-13T08:36:03;6.07;;;4.90;;
16436;SDS011;8328;52.206;21.006;2023-07-13T08:38:30;7.40;;;4.27;;
16436;SDS011;8328;52.206;21.006;2023-07-13T08:40:58;5.50;;;4.10;;
16436;SDS011;8328;52.206;21.006;2023-07-13T08:43:32;6.43;;;4.27;;
16436;SDS011;8328;52.206;21.006;2023-07-13T08:46:06;5.60;;;4.37;;
16436;SDS011;8328;52.206;21.006;2023-07-13T08:54:05;5.00;;;4.50;;
16436;SDS011;8328;52.206;21.006;2023-07-13T08:56:48;6.57;;;4.30;;
16436;SDS011;8328;52.206;21.006;2023-07-13T08:59:19;8.93;;;5.20;;
16436;SDS011;8328;52.206;21.006;2023-07-13T09:04:37;6.33;;;4.37;;
16436;SDS011;8328;52.206;21.006;2023-07-13T09:07:22;7.53;;;5.23;;
16436;SDS011;8328;52.206;21.006;2023-07-13T09:10:17;5.57;;;4.23;;
16436;SDS011;8328;52.206;21.006;2023-07-13T09:13:36;6.60;;;4.20;;
16436;SDS011;8328;52.206;21.006;2023-07-13T09:15:45;5.03;;;4.60;;
16436;SDS011;8328;52.206;21.006;2023-07-13T09:21:00;4.73;;;4.33;;
16436;SDS011;8328;52.206;21.006;2023-07-13T09:23:37;8.03;;;4.63;;
16436;SDS011;8328;52.206;21.006;2023-07-13T09:26:23;5.70;;;4.80;;
16436;SDS011;8328;52.206;21.006;2023-07-13T09:32:03;6.47;;;4.67;;
16436;SDS011;8328;52.206;21.006;2023-07-13T09:34:43;9.20;;;5.30;;
16436;SDS011;8328;52.206;21.006;2023-07-13T09:37:18;6.97;;;5.00;;
16436;SDS011;8328;52.206;21.006;2023-07-13T09:39:49;6.70;;;4.97;;
16436;SDS011;8328;52.206;21.006;2023-07-13T09:42:20;5.27;;;4.77;;
16436;SDS011;8328;52.206;21.006;2023-07-13T09:45:04;7.60;;;5.33;;
16436;SDS011;8328;52.206;21.006;2023-07-13T09:47:38;9.17;;;6.10;;
16436;SDS011;8328;52.206;21.006;2023-07-13T09:50:08;15.33;;;5.20;;
16436;SDS011;8328;52.206;21.006;2023-07-13T09:52:46;17.10;;;4.87;;
16436;SDS011;8328;52.206;21.006;2023-07-13T09:55:23;7.73;;;4.80;;
16436;SDS011;8328;52.206;21.006;2023-07-13T09:57:51;6.97;;;4.17;;
16436;SDS011;8328;52.206;21.006;2023-07-13T10:00:28;12.13;;;4.60;;
16436;SDS011;8328;52.206;21.006;2023-07-13T10:02:59;8.23;;;4.00;;
16436;SDS011;8328;52.206;21.006;2023-07-13T10:05:25;6.30;;;3.77;;
16436;SDS011;8328;52.206;21.006;2023-07-13T10:07:51;8.63;;;3.90;;
16436;SDS011;8328;52.206;21.006;2023-07-13T10:10:18;5.03;;;3.70;;
16436;SDS011;8328;52.206;21.006;2023-07-13T10:12:49;6.77;;;3.90;;
16436;SDS011;8328;52.206;21.006;2023-07-13T10:15:22;4.90;;;3.60;;
16436;SDS011;8328;52.206;21.006;2023-07-13T10:17:54;8.20;;;4.50;;
16436;SDS011;8328;52.206;21.006;2023-07-13T10:20:28;5.63;;;3.83;;
16436;SDS011;8328;52.206;21.006;2023-07-13T10:23:08;5.47;;;3.83;;
16436;SDS011;8328;52.206;21.006;2023-07-13T10:25:53;4.30;;;3.50;;
16436;SDS011;8328;52.206;21.006;2023-07-13T10:28:55;4.03;;;3.33;;
16436;SDS011;8328;52.206;21.006;2023-07-13T10:31:16;7.73;;;3.60;;
16436;SDS011;8328;52.206;21.006;2023-07-13T10:33:46;10.43;;;3.50;;
16436;SDS011;8328;52.206;21.006;2023-07-13T10:36:17;11.83;;;3.73;;
16436;SDS011;8328;52.206;21.006;2023-07-13T10:38:58;12.20;;;3.87;;
16436;SDS011;8328;52.206;21.006;2023-07-13T10:41:29;7.13;;;4.10;;
16436;SDS011;8328;52.206;21.006;2023-07-13T10:43:59;10.33;;;4.10;;
16436;SDS011;8328;52.206;21.006;2023-07-13T10:46:27;10.97;;;8.27;;
16436;SDS011;8328;52.206;21.006;2023-07-13T10:49:02;9.93;;;4.70;;
16436;SDS011;8328;52.206;21.006;2023-07-13T10:51:32;13.17;;;5.40;;
16436;SDS011;8328;52.206;21.006;2023-07-13T10:54:14;13.83;;;5.50;;
16436;SDS011;8328;52.206;21.006;2023-07-13T10:57:14;6.67;;;5.03;;
16436;SDS011;8328;52.206;21.006;2023-07-13T10:59:48;9.23;;;5.40;;
16436;SDS011;8328;52.206;21.006;2023-07-13T11:02:34;13.60;;;5.90;;
16436;SDS011;8328;52.206;21.006;2023-07-13T11:05:01;12.00;;;5.10;;
16436;SDS011;8328;52.206;21.006;2023-07-13T11:18:50;17.57;;;7.63;;
16436;SDS011;8328;52.206;21.006;2023-07-13T11:21:33;14.20;;;7.63;;
16436;SDS011;8328;52.206;21.006;2023-07-13T11:24:16;14.20;;;7.67;;
16436;SDS011;8328;52.206;21.006;2023-07-13T11:26:50;17.33;;;7.77;;
16436;SDS011;8328;52.206;21.006;2023-07-13T11:31:49;17.07;;;8.77;;
16436;SDS011;8328;52.206;21.006;2023-07-13T11:34:21;12.53;;;8.93;;
16436;SDS011;8328;52.206;21.006;2023-07-13T11:37:07;13.53;;;9.00;;
16436;SDS011;8328;52.206;21.006;2023-07-13T11:39:38;14.67;;;8.90;;
16436;SDS011;8328;52.206;21.006;2023-07-13T11:42:12;13.00;;;9.20;;
16436;SDS011;8328;52.206;21.006;2023-07-13T11:44:49;12.87;;;8.93;;
16436;SDS011;8328;52.206;21.006;2023-07-13T11:47:22;14.97;;;8.83;;
16436;SDS011;8328;52.206;21.006;2023-07-13T11:49:52;14.20;;;8.90;;
16436;SDS011;8328;52.206;21.006;2023-07-13T11:52:22;13.90;;;9.17;;
16436;SDS011;8328;52.206;21.006;2023-07-13T11:54:56;12.60;;;9.23;;
16436;SDS011;8328;52.206;21.006;2023-07-13T11:57:32;15.93;;;9.13;;
16436;SDS011;8328;52.206;21.006;2023-07-13T12:00:09;11.73;;;9.30;;
16436;SDS011;8328;52.206;21.006;2023-07-13T12:02:43;14.60;;;9.17;;
16436;SDS011;8328;52.206;21.006;2023-07-13T12:05:12;15.97;;;9.03;;
16436;SDS011;8328;52.206;21.006;2023-07-13T12:07:40;15.87;;;8.70;;
16436;SDS011;8328;52.206;21.006;2023-07-13T12:10:20;12.47;;;7.70;;
16436;SDS011;8328;52.206;21.006;2023-07-13T12:12:58;12.87;;;6.90;;
16436;SDS011;8328;52.206;21.006;2023-07-13T12:18:02;8.53;;;5.43;;
16436;SDS011;8328;52.206;21.006;2023-07-13T12:20:37;8.07;;;5.93;;
16436;SDS011;8328;52.206;21.006;2023-07-13T12:23:10;9.13;;;6.50;;
16436;SDS011;8328;52.206;21.006;2023-07-13T12:25:50;10.30;;;6.30;;
16436;SDS011;8328;52.206;21.006;2023-07-13T12:28:21;8.87;;;6.10;;
16436;SDS011;8328;52.206;21.006;2023-07-13T12:31:08;8.17;;;5.93;;
16436;SDS011;8328;52.206;21.006;2023-07-13T12:34:08;9.73;;;6.20;;
16436;SDS011;8328;52.206;21.006;2023-07-13T12:36:40;10.17;;;6.77;;
16436;SDS011;8328;52.206;21.006;2023-07-13T12:41:43;10.00;;;6.10;;
16436;SDS011;8328;52.206;21.006;2023-07-13T12:44:16;8.53;;;6.30;;
16436;SDS011;8328;52.206;21.006;2023-07-13T12:46:57;7.47;;;5.83;;
16436;SDS011;8328;52.206;21.006;2023-07-13T12:49:30;10.30;;;7.00;;
16436;SDS011;8328;52.206;21.006;2023-07-13T12:52:00;12.67;;;9.00;;
16436;SDS011;8328;52.206;21.006;2023-07-13T12:54:29;10.67;;;7.47;;
16436;SDS011;8328;52.206;21.006;2023-07-13T12:56:56;10.27;;;6.97;;
16436;SDS011;8328;52.206;21.006;2023-07-13T12:59:24;10.97;;;7.43;;
16436;SDS011;8328;52.206;21.006;2023-07-13T13:01:54;10.37;;;7.70;;
16436;SDS011;8328;52.206;21.006;2023-07-13T13:04:20;11.03;;;8.23;;
16436;SDS011;8328;52.206;21.006;2023-07-13T13:06:48;8.97;;;7.30;;
16436;SDS011;8328;52.206;21.006;2023-07-13T13:09:16;11.23;;;7.33;;
16436;SDS011;8328;52.206;21.006;2023-07-13T13:11:46;9.13;;;7.00;;
16436;SDS011;8328;52.206;21.006;2023-07-13T13:14:12;11.33;;;7.30;;
16436;SDS011;8328;52.206;21.006;2023-07-13T13:16:43;14.07;;;8.20;;
16436;SDS011;8328;52.206;21.006;2023-07-13T13:19:19;16.67;;;8.00;;
16436;SDS011;8328;52.206;21.006;2023-07-13T13:21:47;12.10;;;7.60;;
16436;SDS011;8328;52.206;21.006;2023-07-13T13:24:18;16.40;;;9.40;;
16436;SDS011;8328;52.206;21.006;2023-07-13T13:26:51;10.90;;;7.87;;
16436;SDS011;8328;52.206;21.006;2023-07-13T13:29:20;12.50;;;7.93;;
16436;SDS011;8328;52.206;21.006;2023-07-13T13:31:49;13.40;;;9.07;;
16436;SDS011;8328;52.206;21.006;2023-07-13T13:34:16;12.87;;;9.43;;
16436;SDS011;8328;52.206;21.006;2023-07-13T13:36:44;13.23;;;8.67;;
16436;SDS011;8328;52.206;21.006;2023-07-13T13:39:25;16.83;;;8.87;;
16436;SDS011;8328;52.206;21.006;2023-07-13T13:41:57;10.97;;;8.33;;
16436;SDS011;8328;52.206;21.006;2023-07-13T13:44:23;12.67;;;9.87;;
16436;SDS011;8328;52.206;21.006;2023-07-13T13:46:53;12.93;;;9.30;;
16436;SDS011;8328;52.206;21.006;2023-07-13T13:49:21;12.17;;;9.23;;
16436;SDS011;8328;52.206;21.006;2023-07-13T13:51:52;12.33;;;8.77;;
16436;SDS011;8328;52.206;21.006;2023-07-13T13:54:19;12.87;;;9.13;;
16436;SDS011;8328;52.206;21.006;2023-07-13T13:56:47;13.00;;;9.33;;
16436;SDS011;8328;52.206;21.006;2023-07-13T13:59:14;13.27;;;10.23;;
16436;SDS011;8328;52.206;21.006;2023-07-13T14:01:41;12.83;;;9.63;;
16436;SDS011;8328;52.206;21.006;2023-07-13T14:04:13;13.47;;;10.07;;
16436;SDS011;8328;52.206;21.006;2023-07-13T14:06:42;13.73;;;10.20;;
16436;SDS011;8328;52.206;21.006;2023-07-13T14:09:10;11.47;;;9.87;;
16436;SDS011;8328;52.206;21.006;2023-07-13T14:11:38;11.47;;;10.00;;
16436;SDS011;8328;52.206;21.006;2023-07-13T14:14:08;13.20;;;10.07;;
16436;SDS011;8328;52.206;21.006;2023-07-13T14:16:41;16.50;;;11.53;;
16436;SDS011;8328;52.206;21.006;2023-07-13T14:19:08;16.10;;;13.17;;
16436;SDS011;8328;52.206;21.006;2023-07-13T14:21:39;13.73;;;11.03;;
16436;SDS011;8328;52.206;21.006;2023-07-13T14:24:06;14.90;;;10.60;;
16436;SDS011;8328;52.206;21.006;2023-07-13T14:26:35;12.73;;;10.47;;
16436;SDS011;8328;52.206;21.006;2023-07-13T14:29:04;12.73;;;10.13;;
16436;SDS011;8328;52.206;21.006;2023-07-13T14:31:35;10.77;;;9.67;;
16436;SDS011;8328;52.206;21.006;2023-07-13T14:34:01;12.00;;;9.67;;
16436;SDS011;8328;52.206;21.006;2023-07-13T14:38:57;12.83;;;10.03;;
16436;SDS011;8328;52.206;21.006;2023-07-13T14:41:25;10.73;;;9.07;;
16436;SDS011;8328;52.206;21.006;2023-07-13T14:43:51;12.00;;;8.43;;
16436;SDS011;8328;52.206;21.006;2023-07-13T14:46:28;9.70;;;8.03;;
16436;SDS011;8328;52.206;21.006;2023-07-13T14:49:01;9.63;;;8.20;;
16436;SDS011;8328;52.206;21.006;2023-07-13T14:51:29;10.57;;;7.77;;
16436;SDS011;8328;52.206;21.006;2023-07-13T14:54:02;10.23;;;7.87;;
16436;SDS011;8328;52.206;21.006;2023-07-13T14:56:29;9.63;;;8.00;;
16436;SDS011;8328;52.206;21.006;2023-07-13T14:58:55;8.40;;;7.60;;
16436;SDS011;8328;52.206;21.006;2023-07-13T15:01:21;9.27;;;8.07;;
16436;SDS011;8328;52.206;21.006;2023-07-13T15:03:48;10.07;;;8.40;;
16436;SDS011;8328;52.206;21.006;2023-07-13T15:06:16;8.10;;;6.33;;
16436;SDS011;8328;52.206;21.006;2023-07-13T15:08:44;8.93;;;7.40;;
16436;SDS011;8328;52.206;21.006;2023-07-13T15:11:10;7.13;;;5.70;;
16436;SDS011;8328;52.206;21.006;2023-07-13T15:13:37;6.70;;;5.87;;
16436;SDS011;8328;52.206;21.006;2023-07-13T15:16:04;7.50;;;5.80;;
16436;SDS011;8328;52.206;21.006;2023-07-13T15:18:38;9.33;;;7.40;;
16436;SDS011;8328;52.206;21.006;2023-07-13T15:21:08;8.20;;;6.47;;
16436;SDS011;8328;52.206;21.006;2023-07-13T15:23:39;7.93;;;7.10;;
16436;SDS011;8328;52.206;21.006;2023-07-13T15:26:08;9.73;;;6.90;;
16436;SDS011;8328;52.206;21.006;2023-07-13T15:28:39;5.87;;;5.23;;
16436;SDS011;8328;52.206;21.006;2023-07-13T15:31:08;6.60;;;5.20;;
16436;SDS011;8328;52.206;21.006;2023-07-13T15:33:46;6.30;;;5.63;;
16436;SDS011;8328;52.206;21.006;2023-07-13T15:36:14;6.67;;;5.43;;
16436;SDS011;8328;52.206;21.006;2023-07-13T15:38:42;9.20;;;6.40;;
16436;SDS011;8328;52.206;21.006;2023-07-13T15:41:15;8.70;;;5.87;;
16436;SDS011;8328;52.206;21.006;2023-07-13T15:43:47;7.97;;;6.00;;
16436;SDS011;8328;52.206;21.006;2023-07-13T15:46:15;6.37;;;5.03;;
16436;SDS011;8328;52.206;21.006;2023-07-13T15:48:41;7.27;;;5.97;;
16436;SDS011;8328;52.206;21.006;2023-07-13T15:51:11;9.50;;;6.90;;
16436;SDS011;8328;52.206;21.006;2023-07-13T15:53:42;7.50;;;6.30;;
16436;SDS011;8328;52.206;21.006;2023-07-13T15:59:03;8.93;;;7.17;;
16436;SDS011;8328;52.206;21.006;2023-07-13T16:01:29;8.73;;;6.87;;
16436;SDS011;8328;52.206;21.006;2023-07-13T16:03:57;11.67;;;7.33;;
16436;SDS011;8328;52.206;21.006;2023-07-13T16:06:24;9.50;;;6.53;;